Time;durP1;ratioP1;P1;durP2;ratioP2;P2;SDS_P1;SDS_P2;PMS_P1;PMS_P2;Temp;Humidity;BMP_temperature;BMP_pressure;BME280_temperature;BME280_humidity;BME280_pressure;Samples;Min_cycle;Max_cycle;Signal;HPM_P1;HPM_P2
2022/03/25 00:01:25;;;;;;;60.95;24.55;;;2.70;99.90;;;;;;5045311;28;20052;-76
2022/03/25 00:03:52;;;;;;;44.20;23.15;;;2.70;99.90;;;;;;5035504;28;20044;-76
2022/03/25 00:06:17;;;;;;;;;;;2.60;99.90;;;;;;5053859;28;20638;-73
2022/03/25 00:08:43;;;;;;;57.75;23.40;;;2.60;99.90;;;;;;5046325;28;19963;-74
2022/03/25 00:11:09;;;;;;;61.70;24.60;;;2.50;99.90;;;;;;5051356;28;20040;-73
2022/03/25 00:13:35;;;;;;;;;;;2.60;99.90;;;;;;5061508;28;20044;-76
2022/03/25 00:16:03;;;;;;;60.38;23.08;;;2.60;99.90;;;;;;5033049;28;19924;-73
2022/03/25 00:18:29;;;;;;;100.03;24.55;;;2.50;99.90;;;;;;5051005;28;20098;-72
2022/03/25 00:20:55;;;;;;;79.68;24.30;;;2.50;99.90;;;;;;5037446;28;20470;-74
2022/03/25 00:23:21;;;;;;;;;;;2.70;99.90;;;;;;5053752;28;20134;-76
2022/03/25 00:25:46;;;;;;;65.50;22.15;;;2.60;99.90;;;;;;5054054;28;20014;-75
2022/03/25 00:28:12;;;;;;;62.58;23.00;;;2.40;99.90;;;;;;5053931;28;20036;-77
2022/03/25 00:30:38;;;;;;;59.80;23.45;;;2.40;99.90;;;;;;5054029;28;20054;-76
2022/03/25 00:33:04;;;;;;;60.15;22.10;;;2.40;99.90;;;;;;5033726;28;20041;-76
2022/03/25 00:35:31;;;;;;;45.45;22.77;;;2.40;99.90;;;;;;5051556;28;20124;-78
2022/03/25 00:37:58;;;;;;;46.58;22.52;;;2.30;99.90;;;;;;5052171;28;20365;-76
2022/03/25 00:40:24;;;;;;;51.90;23.65;;;2.30;99.90;;;;;;5051192;28;20673;-76
2022/03/25 00:42:50;;;;;;;50.40;22.60;;;2.30;99.90;;;;;;5051475;28;20178;-74
2022/03/25 00:45:16;;;;;;;53.08;25.15;;;2.30;99.90;;;;;;5050384;28;20041;-73
2022/03/25 00:47:42;;;;;;;51.83;24.20;;;2.30;99.90;;;;;;5033399;28;20038;-75
2022/03/25 00:50:09;;;;;;;44.75;21.33;;;2.30;99.90;;;;;;5009420;28;20110;-76
2022/03/25 00:52:35;;;;;;;40.75;22.63;;;2.30;99.90;;;;;;5033711;28;20493;-75
2022/03/25 00:55:01;;;;;;;41.30;24.30;;;2.30;99.90;;;;;;5030405;28;20092;-76
2022/03/25 00:57:27;;;;;;;47.88;22.30;;;2.30;99.90;;;;;;5030128;28;20374;-77
2022/03/25 00:59:53;;;;;;;50.97;24.45;;;2.40;99.90;;;;;;5046926;28;20045;-73
2022/03/25 01:02:19;;;;;;;54.10;23.55;;;2.30;99.90;;;;;;5014170;28;20458;-73
2022/03/25 01:04:45;;;;;;;52.22;24.15;;;2.30;99.90;;;;;;5046264;28;20119;-74
2022/03/25 01:07:10;;;;;;;46.67;21.70;;;2.30;99.90;;;;;;5046017;28;20048;-76
2022/03/25 01:09:36;;;;;;;45.08;23.23;;;2.30;99.90;;;;;;5030762;28;20044;-74
2022/03/25 01:12:02;;;;;;;42.42;22.15;;;2.30;99.90;;;;;;5047464;28;20041;-76
2022/03/25 01:14:28;;;;;;;;;;;2.30;99.90;;;;;;5031330;28;20041;-77
2022/03/25 01:16:54;;;;;;;40.72;21.35;;;2.20;99.90;;;;;;5045687;28;19962;-73
2022/03/25 01:19:20;;;;;;;41.35;21.48;;;2.20;99.90;;;;;;5046817;28;20051;-75
2022/03/25 01:21:47;;;;;;;39.45;21.30;;;2.20;99.90;;;;;;5045770;28;20049;-73
2022/03/25 01:24:12;;;;;;;;;;;2.10;99.90;;;;;;5047580;28;20382;-74
2022/03/25 01:26:39;;;;;;;44.90;20.23;;;2.10;99.90;;;;;;5047654;28;19925;-75
2022/03/25 01:29:05;;;;;;;38.85;20.42;;;2.10;99.90;;;;;;5040707;28;20422;-76
2022/03/25 01:31:32;;;;;;;41.90;21.83;;;2.00;99.90;;;;;;5040270;28;20084;-76
2022/03/25 01:33:58;;;;;;;43.97;20.73;;;2.00;99.90;;;;;;5045692;28;20045;-76
2022/03/25 01:36:24;;;;;;;38.95;19.83;;;2.00;99.90;;;;;;5030172;28;20097;-74
2022/03/25 01:38:50;;;;;;;35.55;20.38;;;1.90;99.90;;;;;;5033893;28;20751;-76
2022/03/25 01:41:17;;;;;;;34.80;18.13;;;1.90;99.90;;;;;;5047036;28;20055;-78
2022/03/25 01:43:54;;;;;;;44.15;21.10;;;2.10;99.90;;;;;;5046495;28;20067;-74
2022/03/25 01:46:21;;;;;;;44.00;18.58;;;1.90;99.90;;;;;;5062677;28;20492;-76
2022/03/25 01:48:47;;;;;;;39.28;20.23;;;2.00;99.90;;;;;;5046607;28;20036;-75
2022/03/25 01:51:19;;;;;;;32.60;19.00;;;1.90;99.90;;;;;;5046428;28;20103;-74
2022/03/25 01:53:47;;;;;;;34.03;19.52;;;1.80;99.90;;;;;;5044995;28;20045;-77
2022/03/25 01:56:22;;;;;;;36.45;19.05;;;1.70;99.90;;;;;;5045655;28;20128;-74
2022/03/25 01:58:48;;;;;;;30.60;18.23;;;1.60;99.90;;;;;;5047331;28;20033;-76
2022/03/25 02:01:14;;;;;;;;;;;1.50;99.90;;;;;;5045806;28;20029;-76
2022/03/25 02:03:39;;;;;;;34.50;17.10;;;1.60;99.90;;;;;;5045984;28;20347;-74
2022/03/25 02:06:06;;;;;;;39.20;18.52;;;1.50;99.90;;;;;;5045512;28;21738;-75
2022/03/25 02:08:32;;;;;;;38.78;19.15;;;1.50;99.90;;;;;;5027587;28;20186;-74
2022/03/25 02:10:58;;;;;;;40.35;19.15;;;1.40;99.90;;;;;;5028923;28;20045;-76
2022/03/25 02:13:25;;;;;;;41.35;18.63;;;1.40;99.90;;;;;;5045104;28;20040;-77
2022/03/25 02:15:51;;;;;;;37.20;18.05;;;1.40;99.90;;;;;;5029084;28;20040;-75
2022/03/25 02:18:21;;;;;;;29.10;17.17;;;1.40;99.90;;;;;;5012747;28;20045;-75
2022/03/25 02:20:48;;;;;;;39.72;18.70;;;1.40;99.90;;;;;;5045677;28;20041;-76
2022/03/25 02:23:14;;;;;;;35.00;19.00;;;1.20;99.90;;;;;;5044637;28;20044;-79
2022/03/25 02:25:41;;;;;;;34.58;17.85;;;1.20;99.90;;;;;;5046458;28;20239;-78
2022/03/25 02:28:07;;;;;;;41.72;20.45;;;1.20;99.90;;;;;;5028251;28;20048;-75
2022/03/25 02:30:35;;;;;;;48.53;22.30;;;1.20;99.90;;;;;;5029572;28;20048;-76
2022/03/25 02:33:02;;;;;;;37.60;20.13;;;1.30;99.90;;;;;;5045424;28;20116;-73
2022/03/25 02:35:47;;;;;;;45.05;20.00;;;1.40;99.90;;;;;;5029010;28;20486;-75
2022/03/25 02:38:24;;;;;;;42.95;19.48;;;1.40;99.90;;;;;;5046520;28;20474;-75
2022/03/25 02:40:50;;;;;;;30.75;18.00;;;1.40;99.90;;;;;;5045354;28;20056;-74
2022/03/25 02:43:16;;;;;;;;;;;1.40;99.90;;;;;;5049417;28;20426;-74
2022/03/25 02:45:42;;;;;;;32.47;16.23;;;1.40;99.90;;;;;;5050434;28;19921;-77
2022/03/25 02:48:09;;;;;;;33.75;19.05;;;1.40;99.90;;;;;;5051383;28;20052;-76
2022/03/25 02:50:35;;;;;;;34.42;18.15;;;1.30;99.90;;;;;;5049679;28;20378;-75
2022/03/25 02:53:01;;;;;;;;;;;1.40;99.90;;;;;;5048210;28;20044;-77
2022/03/25 02:55:26;;;;;;;35.92;18.05;;;1.40;99.90;;;;;;5049038;28;20019;-75
2022/03/25 02:57:54;;;;;;;37.00;18.75;;;1.30;99.90;;;;;;5024343;28;20037;-75
2022/03/25 03:00:21;;;;;;;39.80;17.70;;;1.30;99.90;;;;;;5049910;28;20055;-76
2022/03/25 03:02:47;;;;;;;48.65;21.40;;;1.30;99.90;;;;;;5050869;28;20409;-75
2022/03/25 03:05:14;;;;;;;39.53;19.13;;;1.30;99.90;;;;;;5050438;28;20080;-76
2022/03/25 03:07:40;;;;;;;44.70;20.20;;;1.20;99.90;;;;;;5048654;28;20091;-75
2022/03/25 03:10:06;;;;;;;;;;;1.30;99.90;;;;;;5048152;28;20045;-78
2022/03/25 03:12:35;;;;;;;35.70;20.23;;;1.20;99.90;;;;;;5049359;28;19924;-76
2022/03/25 03:15:02;;;;;;;43.17;20.50;;;1.30;99.90;;;;;;5049179;28;20521;-75
2022/03/25 03:17:27;;;;;;;45.50;20.40;;;1.20;99.90;;;;;;5031597;28;20087;-74
2022/03/25 03:19:54;;;;;;;42.67;21.27;;;1.20;99.90;;;;;;5015714;28;20428;-75
2022/03/25 03:22:20;;;;;;;41.75;20.48;;;1.20;99.90;;;;;;5031285;28;20059;-78
2022/03/25 03:24:45;;;;;;;;;;;1.10;99.90;;;;;;5049281;28;20529;-72
2022/03/25 03:27:11;;;;;;;40.55;18.08;;;1.20;99.90;;;;;;5048820;28;20007;-75
2022/03/25 03:29:38;;;;;;;47.55;20.30;;;1.10;99.90;;;;;;5048880;28;20037;-74
2022/03/25 03:32:05;;;;;;;41.03;20.35;;;1.10;99.90;;;;;;5048042;28;20049;-76
2022/03/25 03:34:31;;;;;;;37.58;20.38;;;1.10;99.90;;;;;;5049552;28;20069;-75
2022/03/25 03:36:57;;;;;;;40.17;19.75;;;1.10;99.90;;;;;;5047659;28;20047;-74
2022/03/25 03:39:23;;;;;;;38.72;19.35;;;1.10;99.90;;;;;;5049685;28;20430;-77
2022/03/25 03:41:48;;;;;;;37.83;19.15;;;1.10;99.90;;;;;;5048206;28;20124;-75
2022/03/25 03:44:14;;;;;;;39.90;19.42;;;1.10;99.90;;;;;;5032629;28;20041;-77
2022/03/25 03:46:40;;;;;;;41.25;20.02;;;1.00;99.90;;;;;;5022176;28;20067;-74
2022/03/25 03:49:06;;;;;;;37.30;19.83;;;1.10;99.90;;;;;;5048162;28;20164;-73
2022/03/25 03:51:32;;;;;;;;;;;1.10;99.90;;;;;;5048224;28;20045;-73
2022/03/25 03:54:00;;;;;;;31.48;18.42;;;1.00;99.90;;;;;;5049341;28;19936;-76
2022/03/25 03:56:26;;;;;;;41.03;20.83;;;1.00;99.90;;;;;;5035398;28;20109;-77
2022/03/25 03:58:52;;;;;;;;;;;1.10;99.90;;;;;;5036285;28;20040;-76
2022/03/25 04:01:17;;;;;;;35.85;18.85;;;1.10;99.90;;;;;;5051842;28;19932;-76
2022/03/25 04:03:43;;;;;;;39.70;19.15;;;1.10;99.90;;;;;;5035357;28;20067;-77
2022/03/25 04:06:09;;;;;;;41.80;19.17;;;1.10;99.90;;;;;;5018467;28;20081;-76
2022/03/25 04:08:35;;;;;;;41.80;18.92;;;1.10;99.90;;;;;;5017131;28;20107;-79
2022/03/25 04:11:03;;;;;;;45.65;22.42;;;1.10;99.90;;;;;;5018199;28;20055;-73
2022/03/25 04:13:28;;;;;;;35.38;18.73;;;1.10;99.90;;;;;;5018955;28;20076;-75
2022/03/25 04:15:54;;;;;;;39.85;19.08;;;1.10;99.90;;;;;;5050991;28;20067;-78
2022/03/25 04:18:22;;;;;;;32.60;18.23;;;1.10;99.90;;;;;;5069267;28;20450;-76
2022/03/25 04:20:48;;;;;;;31.98;18.27;;;1.00;99.90;;;;;;5051136;28;20508;-77
2022/03/25 04:23:13;;;;;;;38.75;18.23;;;1.00;99.90;;;;;;5033374;28;20044;-76
2022/03/25 04:25:39;;;;;;;36.85;17.13;;;1.00;99.90;;;;;;5019308;28;20029;-77
2022/03/25 04:28:05;;;;;;;38.13;17.98;;;0.90;99.90;;;;;;5009669;28;20127;-77
2022/03/25 04:30:33;;;;;;;28.80;16.35;;;0.90;99.90;;;;;;5025442;28;20151;-76
2022/03/25 04:32:59;;;;;;;31.80;17.45;;;0.90;99.90;;;;;;5051166;28;20061;-77
2022/03/25 04:35:26;;;;;;;33.30;17.58;;;0.80;99.90;;;;;;5050682;28;20032;-76
2022/03/25 04:37:53;;;;;;;42.42;19.67;;;0.90;99.90;;;;;;5049657;28;20068;-75
2022/03/25 04:40:20;;;;;;;37.65;17.35;;;0.70;99.90;;;;;;5050608;28;20476;-72
2022/03/25 04:42:47;;;;;;;33.17;17.35;;;0.70;99.90;;;;;;5050794;28;20532;-73
2022/03/25 04:45:14;;;;;;;35.10;17.48;;;0.70;99.90;;;;;;5050397;28;20040;-76
2022/03/25 04:47:40;;;;;;;36.00;17.27;;;0.70;99.90;;;;;;5050366;28;20044;-73
2022/03/25 04:50:05;;;;;;;;;;;0.80;99.90;;;;;;5049983;28;20044;-73
2022/03/25 04:52:31;;;;;;;41.83;17.98;;;0.70;99.90;;;;;;5050085;28;20304;-75
2022/03/25 04:54:57;;;;;;;40.25;18.00;;;0.80;99.90;;;;;;5050088;28;20048;-76
2022/03/25 04:57:23;;;;;;;37.38;17.58;;;0.70;99.90;;;;;;5050933;28;20382;-77
2022/03/25 04:59:49;;;;;;;41.70;19.02;;;0.70;99.90;;;;;;5050555;28;20529;-75
2022/03/25 05:02:15;;;;;;;39.38;18.90;;;0.70;99.90;;;;;;5050052;28;20119;-75
2022/03/25 05:04:41;;;;;;;41.67;20.63;;;0.70;99.90;;;;;;5050377;28;20040;-76
2022/03/25 05:07:12;;;;;;;36.58;18.23;;;0.70;99.90;;;;;;5047752;28;20043;-76
2022/03/25 05:09:38;;;;;;;34.13;18.48;;;0.70;99.90;;;;;;5050795;28;20766;-75
2022/03/25 05:12:04;;;;;;;37.95;18.92;;;0.70;99.90;;;;;;5049783;28;20131;-77
2022/03/25 05:14:30;;;;;;;36.75;19.38;;;0.60;99.90;;;;;;5032585;28;20454;-76
2022/03/25 05:16:56;;;;;;;35.80;17.70;;;0.60;99.90;;;;;;5049008;28;20040;-75
2022/03/25 05:19:22;;;;;;;33.15;18.55;;;0.50;99.90;;;;;;5032093;28;20040;-76
2022/03/25 05:21:48;;;;;;;38.65;16.75;;;0.50;99.90;;;;;;5047400;28;20085;-76
2022/03/25 05:24:14;;;;;;;31.30;16.63;;;0.40;99.90;;;;;;5030730;28;20131;-74
2022/03/25 05:26:40;;;;;;;31.83;16.92;;;0.40;99.90;;;;;;5049375;28;20525;-79
2022/03/25 05:29:06;;;;;;;32.47;17.20;;;0.30;99.90;;;;;;5026961;28;20032;-75
2022/03/25 05:31:32;;;;;;;40.30;18.13;;;0.30;99.90;;;;;;5016202;28;20059;-75
2022/03/25 05:33:58;;;;;;;38.00;20.15;;;0.30;99.90;;;;;;5048582;28;20474;-78
2022/03/25 05:36:24;;;;;;;30.50;17.73;;;0.40;99.90;;;;;;5032511;28;20043;-75
2022/03/25 05:38:51;;;;;;;41.00;20.80;;;0.50;99.90;;;;;;5049961;28;20044;-74
2022/03/25 05:41:17;;;;;;;47.13;21.80;;;0.50;99.90;;;;;;5048582;28;20155;-77
2022/03/25 05:43:43;;;;;;;34.55;19.42;;;0.50;99.90;;;;;;5049653;28;20091;-76
2022/03/25 05:46:09;;;;;;;38.90;19.00;;;0.60;99.90;;;;;;5049534;28;20058;-75
2022/03/25 05:48:34;;;;;;;36.63;18.40;;;0.70;99.90;;;;;;5066952;28;20101;-75
2022/03/25 05:51:00;;;;;;;40.58;20.35;;;0.80;99.90;;;;;;5049417;28;20044;-75
2022/03/25 05:53:26;;;;;;;41.45;22.00;;;0.90;99.90;;;;;;5066339;28;20157;-72
2022/03/25 05:55:52;;;;;;;37.15;20.10;;;0.90;99.90;;;;;;5049325;28;20212;-78
2022/03/25 05:58:18;;;;;;;49.53;22.52;;;1.00;99.90;;;;;;5048455;28;20064;-77
2022/03/25 06:00:44;;;;;;;41.65;21.63;;;1.10;99.90;;;;;;5032209;28;20040;-74
2022/03/25 06:03:10;;;;;;;43.40;21.02;;;1.10;99.90;;;;;;5047970;28;20050;-74
2022/03/25 06:05:36;;;;;;;38.72;20.73;;;1.20;99.90;;;;;;5049089;28;20059;-75
2022/03/25 06:08:02;;;;;;;49.00;21.58;;;1.30;99.90;;;;;;5048116;28;20044;-75
2022/03/25 06:10:27;;;;;;;47.85;23.42;;;1.30;99.90;;;;;;5051211;28;20043;-75
2022/03/25 06:12:53;;;;;;;50.75;22.38;;;1.40;99.90;;;;;;5050623;28;20049;-76
2022/03/25 06:15:19;;;;;;;47.67;21.48;;;1.50;99.90;;;;;;5049600;28;20105;-78
2022/03/25 06:17:47;;;;;;;42.00;21.33;;;1.50;99.90;;;;;;5051664;28;20147;-78
2022/03/25 06:20:17;;;;;;;43.97;19.90;;;1.60;99.90;;;;;;5039471;28;20044;-75
2022/03/25 06:22:44;;;;;;;43.13;20.98;;;1.70;99.90;;;;;;5053744;28;20531;-75
2022/03/25 06:25:10;;;;;;;;;;;1.80;99.90;;;;;;5055733;28;20037;-74
2022/03/25 06:27:48;;;;;;;45.22;21.42;;;1.80;99.90;;;;;;5038908;28;19930;-78
2022/03/25 06:30:14;;;;;;;45.63;21.20;;;1.90;99.90;;;;;;5055041;28;20047;-76
2022/03/25 06:32:41;;;;;;;46.20;21.77;;;2.00;99.90;;;;;;5062375;28;20040;-76
2022/03/25 06:35:07;;;;;;;46.92;22.00;;;2.10;99.90;;;;;;5030270;28;20072;-75
2022/03/25 06:37:33;;;;;;;36.15;19.92;;;2.20;99.90;;;;;;5048056;28;20048;-75
2022/03/25 06:39:59;;;;;;;41.42;21.30;;;2.40;99.90;;;;;;5025522;28;20068;-75
2022/03/25 06:42:25;;;;;;;43.28;20.67;;;2.40;99.90;;;;;;5054112;28;20382;-76
2022/03/25 06:44:51;;;;;;;50.08;22.25;;;2.50;99.90;;;;;;5054846;28;20536;-73
2022/03/25 06:47:17;;;;;;;38.65;21.10;;;2.60;99.90;;;;;;5025977;28;20041;-74
2022/03/25 06:49:43;;;;;;;46.10;19.80;;;2.70;99.90;;;;;;5037032;28;20055;-75
2022/03/25 06:52:09;;;;;;;56.40;22.90;;;2.80;99.90;;;;;;5053077;28;20040;-76
2022/03/25 06:54:35;;;;;;;49.20;23.05;;;3.00;99.90;;;;;;5020043;28;20482;-73
2022/03/25 06:57:01;;;;;;;49.25;22.25;;;3.10;99.90;;;;;;5053986;28;20517;-76
2022/03/25 06:59:27;;;;;;;48.30;23.63;;;3.30;99.90;;;;;;5037917;28;20093;-77
2022/03/25 07:01:53;;;;;;;;;;;3.40;99.90;;;;;;5058185;28;20032;-77
2022/03/25 07:04:19;;;;;;;47.70;21.77;;;3.50;99.90;;;;;;5057704;28;19920;-74
2022/03/25 07:06:48;;;;;;;50.63;21.55;;;3.70;99.90;;;;;;5058298;28;20765;-77
2022/03/25 07:09:14;;;;;;;48.33;22.15;;;3.80;99.90;;;;;;5036152;28;20040;-77
2022/03/25 07:11:40;;;;;;;;;;;3.90;99.90;;;;;;5059786;28;20048;-75
2022/03/25 07:14:06;;;;;;;42.75;18.98;;;4.10;99.90;;;;;;5053364;28;20266;-74
2022/03/25 07:16:32;;;;;;;50.70;23.50;;;4.20;99.90;;;;;;5055867;28;20060;-75
2022/03/25 07:18:59;;;;;;;45.38;24.10;;;4.30;99.90;;;;;;5037638;28;20044;-77
2022/03/25 07:21:26;;;;;;;46.53;22.55;;;4.50;99.90;;;;;;5052837;28;20067;-75
2022/03/25 07:23:51;;;;;;;38.72;20.48;;;4.60;99.90;;;;;;5057340;28;20036;-76
2022/03/25 07:26:17;;;;;;;44.78;22.55;;;4.70;99.90;;;;;;5049594;28;20443;-73
2022/03/25 07:28:44;;;;;;;40.30;20.05;;;4.90;99.90;;;;;;5085704;28;20028;-73
2022/03/25 07:31:09;;;;;;;43.25;19.88;;;5.00;99.90;;;;;;5045339;28;20285;-73
2022/03/25 07:33:36;;;;;;;37.67;20.00;;;5.10;99.90;;;;;;5037443;28;20079;-77
2022/03/25 07:36:02;;;;;;;45.95;20.20;;;5.20;99.90;;;;;;5053303;28;20051;-76
2022/03/25 07:38:28;;;;;;;40.78;18.00;;;5.40;99.90;;;;;;5051884;28;20052;-73
2022/03/25 07:40:55;;;;;;;40.63;19.58;;;5.40;99.90;;;;;;5036224;28;20032;-76
2022/03/25 07:43:20;;;;;;;37.35;19.40;;;5.60;99.90;;;;;;5050683;28;20036;-75
2022/03/25 07:45:46;;;;;;;32.58;16.27;;;5.70;99.90;;;;;;5034329;28;20480;-74
2022/03/25 07:48:12;;;;;;;31.55;16.52;;;5.90;99.90;;;;;;5052188;28;20122;-72
2022/03/25 07:50:38;;;;;;;32.95;18.25;;;6.00;99.90;;;;;;5052347;28;20032;-75
2022/03/25 07:53:04;;;;;;;35.55;17.38;;;6.20;99.90;;;;;;5051998;28;20113;-76
2022/03/25 07:55:29;;;;;;;31.92;16.95;;;6.40;99.90;;;;;;5033062;28;20166;-77
2022/03/25 07:57:57;;;;;;;33.83;16.73;;;6.50;99.90;;;;;;5033905;28;20033;-75
2022/03/25 08:00:22;;;;;;;34.90;18.45;;;6.60;99.90;;;;;;5054661;28;20397;-74
2022/03/25 08:02:53;;;;;;;27.73;16.10;;;6.80;99.90;;;;;;5035556;28;20055;-76
2022/03/25 08:05:19;;;;;;;37.60;17.13;;;7.00;99.90;;;;;;5050971;28;20044;-76
2022/03/25 08:07:52;;;;;;;32.05;16.60;;;7.10;99.90;;;;;;5048893;28;20037;-77
2022/03/25 08:10:29;;;;;;;31.83;16.13;;;7.30;99.90;;;;;;5048424;28;20498;-76
2022/03/25 08:12:56;;;;;;;;;;;7.50;99.90;;;;;;5035463;28;20045;-73
2022/03/25 08:15:24;;;;;;;30.35;15.30;;;7.60;99.90;;;;;;5049788;28;19924;-75
2022/03/25 08:17:52;;;;;;;28.23;14.68;;;7.80;99.90;;;;;;5052224;28;20066;-77
2022/03/25 08:20:26;;;;;;;28.60;14.25;;;8.00;99.90;;;;;;5049298;28;20163;-74
2022/03/25 08:22:53;;;;;;;26.33;13.25;;;8.10;99.90;;;;;;5045999;28;20072;-77
2022/03/25 08:28:04;;;;;;;25.50;11.93;;;8.20;99.90;;;;;;5040171;28;20049;-76
2022/03/25 08:30:30;;;;;;;22.15;12.27;;;8.30;99.90;;;;;;5003802;28;20079;-74
2022/03/25 08:32:57;;;;;;;17.70;11.13;;;8.40;99.90;;;;;;5049014;28;20087;-75
2022/03/25 08:35:27;;;;;;;21.13;11.88;;;8.50;99.90;;;;;;5031835;28;20120;-75
2022/03/25 08:37:54;;;;;;;21.58;11.65;;;8.50;99.90;;;;;;5034591;28;20132;-77
2022/03/25 08:40:24;;;;;;;21.05;12.23;;;8.60;99.90;;;;;;5049211;28;20470;-77
2022/03/25 08:42:50;;;;;;;18.92;11.90;;;8.80;99.90;;;;;;5050594;28;20086;-76
2022/03/25 08:45:16;;;;;;;26.40;12.48;;;8.90;99.90;;;;;;5032898;28;20036;-75
2022/03/25 08:47:46;;;;;;;22.17;12.15;;;9.00;99.90;;;;;;5049710;28;20041;-76
2022/03/25 08:50:14;;;;;;;18.92;10.77;;;9.10;99.90;;;;;;5031064;28;20048;-75
2022/03/25 08:52:40;;;;;;;26.50;12.48;;;9.30;99.90;;;;;;5048618;28;20106;-75
2022/03/25 08:55:09;;;;;;;24.67;12.80;;;9.30;99.90;;;;;;5048271;28;20060;-74
2022/03/25 08:57:35;;;;;;;20.80;11.48;;;9.50;99.90;;;;;;5030877;28;20048;-76
2022/03/25 09:00:02;;;;;;;22.50;12.13;;;9.50;99.90;;;;;;5050675;28;20049;-75
2022/03/25 09:02:28;;;;;;;22.10;11.30;;;9.70;99.90;;;;;;5032369;28;20040;-76
2022/03/25 09:04:53;;;;;;;27.10;12.38;;;9.70;99.90;;;;;;5006163;28;20049;-76
2022/03/25 09:07:19;;;;;;;17.02;11.13;;;9.80;99.90;;;;;;5045423;28;20044;-76
2022/03/25 09:09:45;;;;;;;22.15;11.00;;;9.80;99.90;;;;;;5047276;28;20115;-74
2022/03/25 09:12:11;;;;;;;21.85;11.15;;;9.90;99.90;;;;;;5046373;28;20671;-75
2022/03/25 09:14:37;;;;;;;24.38;11.15;;;10.00;99.90;;;;;;5049090;28;20052;-75
2022/03/25 09:17:03;;;;;;;19.33;11.02;;;10.20;99.90;;;;;;5057570;28;20505;-75
2022/03/25 09:19:28;;;;;;;21.65;10.60;;;10.30;99.90;;;;;;5033813;28;20041;-76
2022/03/25 09:21:54;;;;;;;21.05;10.82;;;10.30;99.90;;;;;;5035666;28;20041;-77
2022/03/25 09:24:20;;;;;;;24.55;11.07;;;10.40;99.90;;;;;;5048809;28;20041;-75
2022/03/25 09:26:45;;;;;;;25.05;12.82;;;10.40;99.90;;;;;;5060479;28;20478;-76
2022/03/25 09:29:11;;;;;;;;;;;10.50;99.90;;;;;;5050024;28;20045;-77
2022/03/25 09:31:38;;;;;;;22.77;11.45;;;10.60;99.90;;;;;;5040707;28;19924;-75
2022/03/25 09:36:49;;;;;;;19.17;11.38;;;10.90;99.90;;;;;;5045343;28;20037;-74
2022/03/25 09:39:15;;;;;;;21.65;12.38;;;11.00;99.90;;;;;;5032328;28;20507;-76
2022/03/25 09:41:41;;;;;;;20.48;11.95;;;11.10;99.90;;;;;;5068716;28;20131;-76
2022/03/25 09:44:08;;;;;;;24.00;11.90;;;11.10;99.90;;;;;;5061778;28;20052;-75
2022/03/25 09:46:41;;;;;;;26.40;11.10;;;11.20;99.90;;;;;;5034329;28;20041;-77
2022/03/25 09:49:07;;;;;;;22.45;11.73;;;11.30;99.90;;;;;;5000767;28;20048;-77
2022/03/25 09:51:33;;;;;;;20.15;10.93;;;11.50;99.90;;;;;;5029810;28;20067;-75
2022/03/25 09:53:59;;;;;;;24.30;10.88;;;11.10;99.90;;;;;;5053048;28;20498;-76
2022/03/25 09:56:25;;;;;;;26.58;12.02;;;11.50;99.90;;;;;;5051675;28;20463;-73
2022/03/25 09:58:50;;;;;;;;;;;11.60;99.90;;;;;;5025065;28;20805;-76
2022/03/25 10:01:16;;;;;;;16.95;9.68;;;11.70;99.90;;;;;;5036363;28;19923;-75
2022/03/25 10:03:42;;;;;;;23.73;11.23;;;11.80;99.90;;;;;;5071857;28;20525;-76
2022/03/25 10:06:11;;;;;;;26.27;11.73;;;11.90;99.90;;;;;;5036888;28;20047;-74
2022/03/25 10:08:38;;;;;;;19.52;10.52;;;12.00;99.90;;;;;;5017485;28;20124;-76
2022/03/25 10:11:30;;;;;;;19.30;11.27;;;12.10;99.90;;;;;;5053215;28;20091;-75
2022/03/25 10:14:18;;;;;;;18.63;9.93;;;12.10;99.90;;;;;;5053082;28;20525;-74
2022/03/25 10:16:45;;;;;;;21.10;11.00;;;12.10;99.90;;;;;;5048682;28;20056;-75
2022/03/25 10:19:13;;;;;;;20.45;11.32;;;12.20;99.90;;;;;;5055894;28;20044;-77
2022/03/25 10:22:00;;;;;;;24.10;12.52;;;12.30;99.90;;;;;;5052648;28;20051;-76
2022/03/25 10:24:48;;;;;;;18.88;11.60;;;12.40;99.90;;;;;;5035918;28;20080;-74
2022/03/25 10:27:20;;;;;;;;;;;12.50;99.90;;;;;;5050254;28;20052;-76
2022/03/25 10:29:47;;;;;;;22.50;11.20;;;12.60;99.90;;;;;;5039249;28;20369;-76
2022/03/25 10:32:15;;;;;;;22.05;11.70;;;12.70;99.90;;;;;;5055625;28;20041;-75
2022/03/25 10:34:42;;;;;;;25.85;12.23;;;12.70;99.90;;;;;;5054170;28;20051;-78
2022/03/25 10:37:11;;;;;;;21.73;12.57;;;12.90;99.90;;;;;;5055414;28;20113;-77
2022/03/25 10:39:38;;;;;;;22.65;12.82;;;12.90;99.90;;;;;;5049895;28;20684;-78
2022/03/25 10:42:06;;;;;;;20.00;11.10;;;12.90;99.90;;;;;;5070170;28;20033;-74
2022/03/25 10:44:41;;;;;;;22.77;11.73;;;13.00;99.90;;;;;;5066712;28;20554;-73
2022/03/25 10:47:16;;;;;;;26.83;11.85;;;13.10;99.90;;;;;;5057081;28;20219;-75
2022/03/25 10:49:48;;;;;;;27.55;12.07;;;13.20;99.90;;;;;;5044986;28;20052;-76
2022/03/25 10:52:30;;;;;;;20.95;12.13;;;13.40;99.90;;;;;;5054824;28;20458;-76
2022/03/25 10:55:15;;;;;;;26.70;11.52;;;13.50;99.90;;;;;;5033829;28;20049;-76
2022/03/25 10:57:54;;;;;;;21.60;11.15;;;13.70;97.70;;;;;;5025570;28;20509;-75
2022/03/25 11:00:24;;;;;;;21.52;11.77;;;13.70;99.90;;;;;;5062798;28;20401;-76
2022/03/25 11:02:51;;;;;;;21.13;12.20;;;13.70;97.80;;;;;;5052879;28;20147;-75
2022/03/25 11:05:16;;;;;;;20.33;11.40;;;13.70;99.90;;;;;;5050467;28;20085;-74
2022/03/25 11:07:45;;;;;;;27.30;13.18;;;13.80;99.90;;;;;;5052538;28;20482;-76
2022/03/25 11:10:17;;;;;;;23.52;12.73;;;13.90;99.90;;;;;;5048492;28;20079;-76
2022/03/25 11:12:48;;;;;;;20.45;12.25;;;14.00;99.90;;;;;;5051841;28;20128;-74
2022/03/25 11:15:15;;;;;;;24.58;12.65;;;14.10;99.90;;;;;;5056023;28;20124;-75
2022/03/25 11:17:42;;;;;;;23.17;13.25;;;14.10;99.60;;;;;;5060592;28;20048;-78
2022/03/25 11:20:10;;;;;;;22.65;11.95;;;14.00;98.30;;;;;;5048133;28;20047;-79
2022/03/25 11:22:51;;;;;;;22.45;11.60;;;14.00;97.50;;;;;;5054231;28;20044;-76
2022/03/25 11:25:23;;;;;;;25.20;11.73;;;14.10;97.00;;;;;;5078890;28;20427;-75
2022/03/25 11:27:59;;;;;;;22.30;12.77;;;14.10;94.40;;;;;;5055582;28;20044;-78
2022/03/25 11:30:31;;;;;;;23.52;12.02;;;14.10;91.90;;;;;;5045949;28;20127;-76
2022/03/25 11:32:56;;;;;;;23.55;11.05;;;14.20;95.00;;;;;;5037244;28;20561;-74
2022/03/25 11:35:24;;;;;;;19.98;11.52;;;14.20;94.50;;;;;;5071158;28;20123;-74
2022/03/25 11:38:12;;;;;;;25.70;11.18;;;14.30;94.30;;;;;;5054474;28;20059;-76
2022/03/25 11:40:40;;;;;;;22.40;10.70;;;14.30;92.60;;;;;;5021883;28;20539;-74
2022/03/25 11:43:17;;;;;;;20.65;11.93;;;14.40;94.70;;;;;;5060422;28;20055;-75
2022/03/25 11:46:06;;;;;;;20.27;11.35;;;14.60;93.40;;;;;;5057556;28;20393;-75
2022/03/25 11:48:38;;;;;;;25.48;11.60;;;14.70;90.10;;;;;;5053915;28;20394;-78
2022/03/25 11:51:31;;;;;;;17.83;9.70;;;14.80;91.00;;;;;;5049926;28;20045;-74
2022/03/25 11:53:57;;;;;;;22.20;10.27;;;14.80;84.30;;;;;;5064005;28;20078;-76
2022/03/25 11:56:24;;;;;;;21.88;9.50;;;14.90;88.90;;;;;;5051960;28;20044;-76
2022/03/25 11:58:55;;;;;;;15.32;8.77;;;14.90;85.90;;;;;;5055235;28;20036;-80
2022/03/25 12:01:22;;;;;;;17.15;9.10;;;14.90;83.10;;;;;;5054877;28;20037;-76
2022/03/25 12:03:53;;;;;;;17.98;9.35;;;14.90;83.30;;;;;;5058516;28;20083;-77
2022/03/25 12:06:25;;;;;;;18.92;9.05;;;14.90;81.50;;;;;;5051986;28;20125;-78
2022/03/25 12:09:06;;;;;;;15.85;9.57;;;14.90;78.70;;;;;;5053079;28;20271;-76
2022/03/25 12:11:51;;;;;;;18.80;8.80;;;14.90;76.40;;;;;;5040686;28;20041;-76
2022/03/25 12:14:26;;;;;;;12.55;8.57;;;15.00;77.00;;;;;;5055166;28;20462;-76
2022/03/25 12:16:51;;;;;;;17.27;8.27;;;15.00;75.60;;;;;;5056493;28;20147;-76
2022/03/25 12:19:26;;;;;;;17.77;9.02;;;15.00;76.70;;;;;;5058051;28;20126;-76
2022/03/25 12:21:57;;;;;;;18.83;9.07;;;15.00;73.30;;;;;;5034001;28;20576;-75
2022/03/25 12:24:24;;;;;;;14.68;8.45;;;15.00;74.10;;;;;;5054704;28;20137;-73
2022/03/25 12:27:05;;;;;;;14.13;8.85;;;15.10;74.50;;;;;;5038795;28;20040;-75
2022/03/25 12:29:51;;;;;;;17.45;10.52;;;15.10;73.00;;;;;;5054412;28;20036;-78
2022/03/25 12:32:19;;;;;;;19.10;10.02;;;15.20;73.10;;;;;;5089146;28;20032;-74
2022/03/25 12:34:55;;;;;;;16.83;10.10;;;15.10;71.90;;;;;;5025139;28;20192;-75
2022/03/25 12:37:52;;;;;;;24.08;12.88;;;15.10;70.90;;;;;;5058119;28;20150;-74
2022/03/25 12:40:23;;;;;;;20.48;11.27;;;15.10;71.10;;;;;;5024424;28;20064;-76
2022/03/25 12:43:11;;;;;;;23.40;11.23;;;15.20;74.40;;;;;;5050853;28;20493;-77
2022/03/25 12:45:44;;;;;;;21.50;11.82;;;15.30;73.10;;;;;;5053007;28;20204;-78
2022/03/25 12:48:12;;;;;;;22.63;12.63;;;15.50;72.80;;;;;;5058795;28;20044;-78
2022/03/25 12:50:43;;;;;;;23.70;13.23;;;15.40;72.80;;;;;;5047134;28;20328;-75